Airfield :
LOGIN :

Register | Disclaimer

   EN    FR    IT 

 










Legend :    VFR   Marginal VFR   IFR   Intensive IFR   Very Intensive IFR
Visi :
Ceiling :
>= 8 km
>= 3000ft
5 to 8 km
1000 to 3000 ft
1500m to 5 km
500 to 1000 ft
800 to 1500m
200 to 500 ft
< 800m
< 200 ft
Symbols :   Thunderstorms  Fog  Heavy snow  Heavy precipitations  Wind > 20 kt
SIGMETs :     Misc.  Thunderstorms  Icing  Turbulence  Mountain Waves  Volcanic Ashes






- Airport Elevation : 236 ft
- IATA code : MMX


ESMS - Malmö Sturup

CURRENT METAR :
  • 060550Z 12010KT CAVOK 07/01 Q1025

EXPIRED METARs :
  • 060520Z 13011KT CAVOK 06/00 Q1025
  • 060450Z 12011KT CAVOK 06/01 Q1025
  • 060420Z 12009KT CAVOK 05/00 Q1025
  • 060350Z 12008KT CAVOK 05/01 Q1025
  • 060320Z 12008KT CAVOK 05/01 Q1026

TAF TAF ESMS
Valid from the 06 at 06:00 until the 07 at 06:00 UTC


060452Z 0606/0706 13010KT CAVOK
BECMG 0700/0703 29010KT
TEMPO 0704/0706 BKN008



MET'MAP, your aeronautical weather chart ! - Copyright ORBIFLY December 2007 - Disclaimer

ORBIFLY MET'MAP TEAM :

Programming & Development : Alexandra Zaïnal
Concept & original design : Baudouin d'Aumeries
Assistance for programming : Marc-Olivier Méhu
Technical & hardware support : Manuel Goepfert

Contact : metmap@orbifly.com




SOURCES & CREDITS :

   NOAA